sensor_id;sensor_type;location;lat;lon;timestamp;temperature;humidity
792;DHT22;379;49.022;12.148;2023-08-17T00:01:10;18.80;99.90
792;DHT22;379;49.022;12.148;2023-08-17T00:03:37;18.70;99.90
792;DHT22;379;49.022;12.148;2023-08-17T00:06:03;18.70;99.90
792;DHT22;379;49.022;12.148;2023-08-17T00:08:30;18.70;99.90
792;DHT22;379;49.022;12.148;2023-08-17T00:10:57;18.60;99.90
792;DHT22;379;49.022;12.148;2023-08-17T00:13:23;18.50;99.90
792;DHT22;379;49.022;12.148;2023-08-17T00:15:52;18.60;99.90
792;DHT22;379;49.022;12.148;2023-08-17T00:18:18;18.50;99.90
792;DHT22;379;49.022;12.148;2023-08-17T00:20:45;18.60;99.90
792;DHT22;379;49.022;12.148;2023-08-17T00:23:12;18.60;99.90
792;DHT22;379;49.022;12.148;2023-08-17T00:25:38;18.60;99.90
792;DHT22;379;49.022;12.148;2023-08-17T00:28:05;18.50;99.90
792;DHT22;379;49.022;12.148;2023-08-17T00:30:32;18.50;99.90
792;DHT22;379;49.022;12.148;2023-08-17T00:33:03;18.50;99.90
792;DHT22;379;49.022;12.148;2023-08-17T00:35:30;18.50;99.90
792;DHT22;379;49.022;12.148;2023-08-17T00:37:57;18.40;99.90
792;DHT22;379;49.022;12.148;2023-08-17T00:40:23;18.40;99.90
792;DHT22;379;49.022;12.148;2023-08-17T00:42:50;18.40;99.90
792;DHT22;379;49.022;12.148;2023-08-17T00:45:17;18.40;99.90
792;DHT22;379;49.022;12.148;2023-08-17T00:47:44;18.40;99.90
792;DHT22;379;49.022;12.148;2023-08-17T00:50:14;18.40;99.90
792;DHT22;379;49.022;12.148;2023-08-17T00:52:41;18.40;99.90
792;DHT22;379;49.022;12.148;2023-08-17T00:55:09;18.40;99.90
792;DHT22;379;49.022;12.148;2023-08-17T00:57:37;18.50;99.90
792;DHT22;379;49.022;12.148;2023-08-17T01:00:07;18.50;99.90
792;DHT22;379;49.022;12.148;2023-08-17T01:02:35;18.60;99.90
792;DHT22;379;49.022;12.148;2023-08-17T01:05:02;18.70;99.90
792;DHT22;379;49.022;12.148;2023-08-17T01:07:32;18.70;99.90
792;DHT22;379;49.022;12.148;2023-08-17T01:10:00;18.70;99.90
792;DHT22;379;49.022;12.148;2023-08-17T01:12:30;18.70;99.90
792;DHT22;379;49.022;12.148;2023-08-17T01:15:04;18.70;99.90
792;DHT22;379;49.022;12.148;2023-08-17T01:17:35;18.70;99.90
792;DHT22;379;49.022;12.148;2023-08-17T01:20:06;18.70;99.90
792;DHT22;379;49.022;12.148;2023-08-17T01:22:37;18.70;99.90
792;DHT22;379;49.022;12.148;2023-08-17T01:25:07;18.70;99.90
792;DHT22;379;49.022;12.148;2023-08-17T01:27:41;18.60;99.90
792;DHT22;379;49.022;12.148;2023-08-17T01:30:09;18.60;99.90
792;DHT22;379;49.022;12.148;2023-08-17T01:32:39;18.50;99.90
792;DHT22;379;49.022;12.148;2023-08-17T01:35:14;18.50;99.90
792;DHT22;379;49.022;12.148;2023-08-17T01:37:43;18.40;99.90
792;DHT22;379;49.022;12.148;2023-08-17T01:40:12;18.40;99.90
792;DHT22;379;49.022;12.148;2023-08-17T01:42:41;18.40;99.90
792;DHT22;379;49.022;12.148;2023-08-17T01:45:09;18.40;99.90
792;DHT22;379;49.022;12.148;2023-08-17T01:47:37;18.30;99.90
792;DHT22;379;49.022;12.148;2023-08-17T01:50:04;18.30;99.90
792;DHT22;379;49.022;12.148;2023-08-17T01:52:31;18.30;99.90
792;DHT22;379;49.022;12.148;2023-08-17T01:54:58;18.30;99.90
792;DHT22;379;49.022;12.148;2023-08-17T01:57:26;18.30;99.90
792;DHT22;379;49.022;12.148;2023-08-17T01:59:53;18.30;99.90
792;DHT22;379;49.022;12.148;2023-08-17T02:02:19;18.20;99.90
792;DHT22;379;49.022;12.148;2023-08-17T02:04:47;18.10;99.90
792;DHT22;379;49.022;12.148;2023-08-17T02:07:13;18.10;99.90
792;DHT22;379;49.022;12.148;2023-08-17T02:09:40;18.00;99.90
792;DHT22;379;49.022;12.148;2023-08-17T02:12:07;18.00;99.90
792;DHT22;379;49.022;12.148;2023-08-17T02:14:35;18.00;99.90
792;DHT22;379;49.022;12.148;2023-08-17T02:17:02;18.00;99.90
792;DHT22;379;49.022;12.148;2023-08-17T02:19:30;18.00;99.90
792;DHT22;379;49.022;12.148;2023-08-17T02:21:58;18.00;99.90
792;DHT22;379;49.022;12.148;2023-08-17T02:24:25;18.00;99.90
792;DHT22;379;49.022;12.148;2023-08-17T02:26:52;18.10;99.90
792;DHT22;379;49.022;12.148;2023-08-17T02:29:18;18.10;99.90
792;DHT22;379;49.022;12.148;2023-08-17T02:31:46;18.20;99.90
792;DHT22;379;49.022;12.148;2023-08-17T02:34:13;18.20;99.90
792;DHT22;379;49.022;12.148;2023-08-17T02:36:40;18.20;99.90
792;DHT22;379;49.022;12.148;2023-08-17T02:39:07;18.20;99.90
792;DHT22;379;49.022;12.148;2023-08-17T02:41:33;18.20;99.90
792;DHT22;379;49.022;12.148;2023-08-17T02:44:01;18.20;99.90
792;DHT22;379;49.022;12.148;2023-08-17T02:46:27;18.20;99.90
792;DHT22;379;49.022;12.148;2023-08-17T02:48:55;18.20;99.90
792;DHT22;379;49.022;12.148;2023-08-17T02:51:22;18.20;99.90
792;DHT22;379;49.022;12.148;2023-08-17T02:53:49;18.20;99.90
792;DHT22;379;49.022;12.148;2023-08-17T02:56:16;18.20;99.90
792;DHT22;379;49.022;12.148;2023-08-17T02:58:42;18.10;99.90
792;DHT22;379;49.022;12.148;2023-08-17T03:01:09;18.00;99.90
792;DHT22;379;49.022;12.148;2023-08-17T03:03:36;17.90;99.90
792;DHT22;379;49.022;12.148;2023-08-17T03:06:05;17.90;99.90
792;DHT22;379;49.022;12.148;2023-08-17T03:08:32;17.90;99.90
792;DHT22;379;49.022;12.148;2023-08-17T03:10:58;17.80;99.90
792;DHT22;379;49.022;12.148;2023-08-17T03:13:25;17.80;99.90
792;DHT22;379;49.022;12.148;2023-08-17T03:15:52;17.80;99.90
792;DHT22;379;49.022;12.148;2023-08-17T03:18:18;17.70;99.90
792;DHT22;379;49.022;12.148;2023-08-17T03:20:45;17.60;99.90
792;DHT22;379;49.022;12.148;2023-08-17T03:23:13;17.60;99.90
792;DHT22;379;49.022;12.148;2023-08-17T03:25:40;17.50;99.90
792;DHT22;379;49.022;12.148;2023-08-17T03:28:07;17.50;99.90
792;DHT22;379;49.022;12.148;2023-08-17T03:30:34;17.60;99.90
792;DHT22;379;49.022;12.148;2023-08-17T03:33:01;17.70;99.90
792;DHT22;379;49.022;12.148;2023-08-17T03:35:27;17.70;99.90
792;DHT22;379;49.022;12.148;2023-08-17T03:37:54;17.80;99.90
792;DHT22;379;49.022;12.148;2023-08-17T03:40:22;17.70;99.90
792;DHT22;379;49.022;12.148;2023-08-17T03:42:49;17.60;99.90
792;DHT22;379;49.022;12.148;2023-08-17T03:45:15;17.60;99.90
792;DHT22;379;49.022;12.148;2023-08-17T03:47:42;17.50;99.90
792;DHT22;379;49.022;12.148;2023-08-17T03:50:10;17.50;99.90
792;DHT22;379;49.022;12.148;2023-08-17T03:52:36;17.50;99.90
792;DHT22;379;49.022;12.148;2023-08-17T03:55:03;17.50;99.90
792;DHT22;379;49.022;12.148;2023-08-17T03:57:33;17.50;99.90
792;DHT22;379;49.022;12.148;2023-08-17T04:00:00;17.50;99.90
792;DHT22;379;49.022;12.148;2023-08-17T04:02:26;17.50;99.90
792;DHT22;379;49.022;12.148;2023-08-17T04:04:53;17.50;99.90
792;DHT22;379;49.022;12.148;2023-08-17T04:07:23;17.50;99.90
792;DHT22;379;49.022;12.148;2023-08-17T04:09:50;17.60;99.90
792;DHT22;379;49.022;12.148;2023-08-17T04:12:17;17.60;99.90
792;DHT22;379;49.022;12.148;2023-08-17T04:14:45;17.70;99.90
792;DHT22;379;49.022;12.148;2023-08-17T04:17:12;17.70;99.90
792;DHT22;379;49.022;12.148;2023-08-17T04:19:39;17.80;99.90
792;DHT22;379;49.022;12.148;2023-08-17T04:22:05;17.80;99.90
792;DHT22;379;49.022;12.148;2023-08-17T04:24:32;17.80;99.90
792;DHT22;379;49.022;12.148;2023-08-17T04:26:59;17.80;99.90
792;DHT22;379;49.022;12.148;2023-08-17T04:29:26;17.80;99.90
792;DHT22;379;49.022;12.148;2023-08-17T04:31:54;17.90;99.90
792;DHT22;379;49.022;12.148;2023-08-17T04:34:21;17.90;99.90
792;DHT22;379;49.022;12.148;2023-08-17T04:36:47;17.90;99.90
792;DHT22;379;49.022;12.148;2023-08-17T04:39:14;17.90;99.90
792;DHT22;379;49.022;12.148;2023-08-17T04:41:41;18.00;99.90
792;DHT22;379;49.022;12.148;2023-08-17T04:44:08;18.10;99.90
792;DHT22;379;49.022;12.148;2023-08-17T04:46:35;18.20;99.90
792;DHT22;379;49.022;12.148;2023-08-17T04:49:03;18.30;99.90
792;DHT22;379;49.022;12.148;2023-08-17T04:51:30;18.50;99.90
792;DHT22;379;49.022;12.148;2023-08-17T04:53:57;18.60;99.90
792;DHT22;379;49.022;12.148;2023-08-17T04:56:23;18.80;99.90
792;DHT22;379;49.022;12.148;2023-08-17T04:58:50;19.00;99.90
792;DHT22;379;49.022;12.148;2023-08-17T05:01:17;19.20;99.90
792;DHT22;379;49.022;12.148;2023-08-17T05:03:44;19.40;99.90
792;DHT22;379;49.022;12.148;2023-08-17T05:06:12;19.60;99.90
792;DHT22;379;49.022;12.148;2023-08-17T05:08:39;19.80;99.90
792;DHT22;379;49.022;12.148;2023-08-17T05:11:06;20.00;99.90
792;DHT22;379;49.022;12.148;2023-08-17T05:13:32;20.10;99.90
792;DHT22;379;49.022;12.148;2023-08-17T05:15:59;20.30;99.90
792;DHT22;379;49.022;12.148;2023-08-17T05:18:26;20.40;99.90
792;DHT22;379;49.022;12.148;2023-08-17T05:20:53;20.60;99.90
792;DHT22;379;49.022;12.148;2023-08-17T05:23:21;20.80;99.90
792;DHT22;379;49.022;12.148;2023-08-17T05:25:48;21.00;99.90
792;DHT22;379;49.022;12.148;2023-08-17T05:28:15;21.10;99.90
792;DHT22;379;49.022;12.148;2023-08-17T05:30:42;21.20;99.90
792;DHT22;379;49.022;12.148;2023-08-17T05:33:08;21.30;99.90
792;DHT22;379;49.022;12.148;2023-08-17T05:35:35;21.50;99.90
792;DHT22;379;49.022;12.148;2023-08-17T05:38:02;21.50;99.90
792;DHT22;379;49.022;12.148;2023-08-17T05:40:31;21.60;99.90
792;DHT22;379;49.022;12.148;2023-08-17T05:42:58;21.70;99.90
792;DHT22;379;49.022;12.148;2023-08-17T05:45:25;21.90;99.90
792;DHT22;379;49.022;12.148;2023-08-17T05:47:51;22.00;99.90
792;DHT22;379;49.022;12.148;2023-08-17T05:50:18;22.10;99.90
792;DHT22;379;49.022;12.148;2023-08-17T05:52:45;22.20;99.90
792;DHT22;379;49.022;12.148;2023-08-17T05:55:12;22.20;99.90
792;DHT22;379;49.022;12.148;2023-08-17T05:57:40;22.20;99.90
792;DHT22;379;49.022;12.148;2023-08-17T06:00:08;22.20;99.90
792;DHT22;379;49.022;12.148;2023-08-17T06:02:37;22.40;99.90
792;DHT22;379;49.022;12.148;2023-08-17T06:05:05;22.70;99.90
792;DHT22;379;49.022;12.148;2023-08-17T06:07:33;22.90;99.90
792;DHT22;379;49.022;12.148;2023-08-17T06:10:02;23.00;99.90
792;DHT22;379;49.022;12.148;2023-08-17T06:12:29;23.00;99.90
792;DHT22;379;49.022;12.148;2023-08-17T06:14:57;23.10;99.90
792;DHT22;379;49.022;12.148;2023-08-17T06:17:24;23.30;99.90
792;DHT22;379;49.022;12.148;2023-08-17T06:19:50;23.40;99.90
792;DHT22;379;49.022;12.148;2023-08-17T06:22:17;23.50;99.90
792;DHT22;379;49.022;12.148;2023-08-17T06:24:44;23.60;99.90
792;DHT22;379;49.022;12.148;2023-08-17T06:27:14;23.70;99.90
792;DHT22;379;49.022;12.148;2023-08-17T06:29:41;23.90;99.90
792;DHT22;379;49.022;12.148;2023-08-17T06:32:09;24.10;99.90
792;DHT22;379;49.022;12.148;2023-08-17T06:34:36;24.20;99.90
792;DHT22;379;49.022;12.148;2023-08-17T06:37:03;24.30;99.90
792;DHT22;379;49.022;12.148;2023-08-17T06:39:30;24.30;99.90
792;DHT22;379;49.022;12.148;2023-08-17T06:41:58;24.50;99.90
792;DHT22;379;49.022;12.148;2023-08-17T06:44:24;24.80;99.90
792;DHT22;379;49.022;12.148;2023-08-17T06:46:51;24.90;99.90
792;DHT22;379;49.022;12.148;2023-08-17T06:49:19;24.90;99.90
792;DHT22;379;49.022;12.148;2023-08-17T06:51:46;24.80;99.90
792;DHT22;379;49.022;12.148;2023-08-17T06:54:13;24.60;99.90
792;DHT22;379;49.022;12.148;2023-08-17T06:56:40;24.40;99.90
792;DHT22;379;49.022;12.148;2023-08-17T06:59:06;24.30;99.90
792;DHT22;379;49.022;12.148;2023-08-17T07:01:33;24.30;99.90
792;DHT22;379;49.022;12.148;2023-08-17T07:04:00;24.50;99.90
792;DHT22;379;49.022;12.148;2023-08-17T07:06:28;25.00;99.90
792;DHT22;379;49.022;12.148;2023-08-17T07:08:55;25.50;99.90
792;DHT22;379;49.022;12.148;2023-08-17T07:11:22;26.20;99.90
792;DHT22;379;49.022;12.148;2023-08-17T07:13:49;26.70;99.90
792;DHT22;379;49.022;12.148;2023-08-17T07:16:15;27.20;99.90
792;DHT22;379;49.022;12.148;2023-08-17T07:18:42;27.60;99.90
792;DHT22;379;49.022;12.148;2023-08-17T07:21:09;27.90;99.90
792;DHT22;379;49.022;12.148;2023-08-17T07:23:37;28.20;99.80
792;DHT22;379;49.022;12.148;2023-08-17T07:26:04;28.40;95.40
792;DHT22;379;49.022;12.148;2023-08-17T07:28:30;28.50;94.00
792;DHT22;379;49.022;12.148;2023-08-17T07:30:57;28.70;93.70
792;DHT22;379;49.022;12.148;2023-08-17T07:33:24;28.80;93.70
792;DHT22;379;49.022;12.148;2023-08-17T07:35:50;28.90;90.70
792;DHT22;379;49.022;12.148;2023-08-17T07:38:18;29.00;90.70
792;DHT22;379;49.022;12.148;2023-08-17T07:40:46;28.90;89.10
792;DHT22;379;49.022;12.148;2023-08-17T07:43:13;28.70;87.90
792;DHT22;379;49.022;12.148;2023-08-17T07:45:40;28.50;88.50
792;DHT22;379;49.022;12.148;2023-08-17T07:48:07;28.20;86.90
792;DHT22;379;49.022;12.148;2023-08-17T07:50:33;27.90;86.90
792;DHT22;379;49.022;12.148;2023-08-17T07:53:00;27.50;88.10
792;DHT22;379;49.022;12.148;2023-08-17T07:55:27;27.30;89.60
792;DHT22;379;49.022;12.148;2023-08-17T07:57:55;27.00;90.70
792;DHT22;379;49.022;12.148;2023-08-17T08:00:22;26.80;90.80
792;DHT22;379;49.022;12.148;2023-08-17T08:02:48;26.70;91.20
792;DHT22;379;49.022;12.148;2023-08-17T08:05:15;26.60;92.30
792;DHT22;379;49.022;12.148;2023-08-17T08:07:42;26.60;93.20
792;DHT22;379;49.022;12.148;2023-08-17T08:10:09;26.70;93.20
792;DHT22;379;49.022;12.148;2023-08-17T08:12:35;26.70;93.30
792;DHT22;379;49.022;12.148;2023-08-17T08:15:04;26.70;93.50
792;DHT22;379;49.022;12.148;2023-08-17T08:17:31;26.70;94.10
792;DHT22;379;49.022;12.148;2023-08-17T08:19:58;26.70;94.80
792;DHT22;379;49.022;12.148;2023-08-17T08:22:25;26.80;94.00
792;DHT22;379;49.022;12.148;2023-08-17T08:24:51;26.80;94.00
792;DHT22;379;49.022;12.148;2023-08-17T08:27:18;26.80;93.20
792;DHT22;379;49.022;12.148;2023-08-17T08:29:45;26.70;93.90
792;DHT22;379;49.022;12.148;2023-08-17T08:32:13;26.70;93.90
792;DHT22;379;49.022;12.148;2023-08-17T08:34:40;26.70;94.30
792;DHT22;379;49.022;12.148;2023-08-17T08:37:07;26.60;93.80
792;DHT22;379;49.022;12.148;2023-08-17T08:39:48;26.60;94.70
792;DHT22;379;49.022;12.148;2023-08-17T08:42:15;26.70;95.70
792;DHT22;379;49.022;12.148;2023-08-17T08:44:42;26.80;96.10
792;DHT22;379;49.022;12.148;2023-08-17T08:47:09;26.90;95.70
792;DHT22;379;49.022;12.148;2023-08-17T08:49:40;27.00;95.20
792;DHT22;379;49.022;12.148;2023-08-17T08:52:08;26.80;94.40
792;DHT22;379;49.022;12.148;2023-08-17T08:54:37;26.70;95.50
792;DHT22;379;49.022;12.148;2023-08-17T08:57:08;26.80;96.10
792;DHT22;379;49.022;12.148;2023-08-17T08:59:39;26.90;96.30
792;DHT22;379;49.022;12.148;2023-08-17T09:02:12;27.00;96.00
792;DHT22;379;49.022;12.148;2023-08-17T09:04:42;27.10;95.70
792;DHT22;379;49.022;12.148;2023-08-17T09:07:11;27.10;95.50
792;DHT22;379;49.022;12.148;2023-08-17T09:09:38;27.10;94.80
792;DHT22;379;49.022;12.148;2023-08-17T09:12:07;27.10;95.20
792;DHT22;379;49.022;12.148;2023-08-17T09:14:35;27.10;94.30
792;DHT22;379;49.022;12.148;2023-08-17T09:17:02;27.00;93.40
792;DHT22;379;49.022;12.148;2023-08-17T09:19:31;26.90;93.80
792;DHT22;379;49.022;12.148;2023-08-17T09:22:00;27.00;94.20
792;DHT22;379;49.022;12.148;2023-08-17T09:24:33;27.00;93.50
792;DHT22;379;49.022;12.148;2023-08-17T09:27:01;27.00;93.30
792;DHT22;379;49.022;12.148;2023-08-17T09:29:28;27.00;92.70
792;DHT22;379;49.022;12.148;2023-08-17T09:31:58;27.00;93.10
792;DHT22;379;49.022;12.148;2023-08-17T09:34:30;26.90;92.60
792;DHT22;379;49.022;12.148;2023-08-17T09:37:02;27.00;93.50
792;DHT22;379;49.022;12.148;2023-08-17T09:39:29;27.10;93.60
792;DHT22;379;49.022;12.148;2023-08-17T09:41:55;27.20;93.50
792;DHT22;379;49.022;12.148;2023-08-17T09:44:22;27.30;93.30
792;DHT22;379;49.022;12.148;2023-08-17T09:46:49;27.30;93.30
792;DHT22;379;49.022;12.148;2023-08-17T09:49:17;27.30;92.60
792;DHT22;379;49.022;12.148;2023-08-17T09:51:44;27.30;93.20
792;DHT22;379;49.022;12.148;2023-08-17T09:54:21;27.30;91.90
792;DHT22;379;49.022;12.148;2023-08-17T09:56:50;27.20;91.80
792;DHT22;379;49.022;12.148;2023-08-17T09:59:17;27.20;92.20
792;DHT22;379;49.022;12.148;2023-08-17T10:01:45;27.20;92.40
792;DHT22;379;49.022;12.148;2023-08-17T10:04:12;27.20;92.20
792;DHT22;379;49.022;12.148;2023-08-17T10:06:41;27.20;91.10
792;DHT22;379;49.022;12.148;2023-08-17T10:09:09;27.20;91.40
792;DHT22;379;49.022;12.148;2023-08-17T10:11:40;27.20;92.10
792;DHT22;379;49.022;12.148;2023-08-17T10:14:12;27.20;93.10
792;DHT22;379;49.022;12.148;2023-08-17T10:16:44;27.20;93.20
792;DHT22;379;49.022;12.148;2023-08-17T10:19:18;27.30;91.80
792;DHT22;379;49.022;12.148;2023-08-17T10:21:50;27.30;91.80
792;DHT22;379;49.022;12.148;2023-08-17T10:24:20;27.30;92.30
792;DHT22;379;49.022;12.148;2023-08-17T10:26:49;27.40;92.30
792;DHT22;379;49.022;12.148;2023-08-17T10:29:17;27.50;91.40
792;DHT22;379;49.022;12.148;2023-08-17T10:31:44;27.60;91.80
792;DHT22;379;49.022;12.148;2023-08-17T10:34:12;27.60;91.40
792;DHT22;379;49.022;12.148;2023-08-17T10:36:40;27.60;90.70
792;DHT22;379;49.022;12.148;2023-08-17T10:39:23;27.60;90.60
792;DHT22;379;49.022;12.148;2023-08-17T10:41:52;27.60;91.50
792;DHT22;379;49.022;12.148;2023-08-17T10:44:38;27.70;91.80
792;DHT22;379;49.022;12.148;2023-08-17T10:47:22;27.70;90.90
792;DHT22;379;49.022;12.148;2023-08-17T10:49:50;27.80;90.70
792;DHT22;379;49.022;12.148;2023-08-17T10:52:25;27.80;89.20
792;DHT22;379;49.022;12.148;2023-08-17T10:54:53;27.60;88.90
792;DHT22;379;49.022;12.148;2023-08-17T10:57:33;27.50;90.60
792;DHT22;379;49.022;12.148;2023-08-17T11:00:17;27.60;91.20
792;DHT22;379;49.022;12.148;2023-08-17T11:02:52;27.60;90.40
792;DHT22;379;49.022;12.148;2023-08-17T11:05:36;27.70;90.70
792;DHT22;379;49.022;12.148;2023-08-17T11:08:03;27.80;91.20
792;DHT22;379;49.022;12.148;2023-08-17T11:10:30;28.00;91.20
792;DHT22;379;49.022;12.148;2023-08-17T11:12:59;28.10;90.40
792;DHT22;379;49.022;12.148;2023-08-17T11:15:35;28.10;90.10
792;DHT22;379;49.022;12.148;2023-08-17T11:18:05;28.00;90.00
792;DHT22;379;49.022;12.148;2023-08-17T11:20:32;28.00;90.60
792;DHT22;379;49.022;12.148;2023-08-17T11:22:59;28.10;90.00
792;DHT22;379;49.022;12.148;2023-08-17T11:25:26;28.10;90.10
792;DHT22;379;49.022;12.148;2023-08-17T11:27:54;28.10;89.30
792;DHT22;379;49.022;12.148;2023-08-17T11:30:22;28.10;90.60
792;DHT22;379;49.022;12.148;2023-08-17T11:32:49;28.10;88.70
792;DHT22;379;49.022;12.148;2023-08-17T11:35:16;28.20;88.60
792;DHT22;379;49.022;12.148;2023-08-17T11:37:43;28.30;89.50
792;DHT22;379;49.022;12.148;2023-08-17T11:40:10;28.20;85.40
792;DHT22;379;49.022;12.148;2023-08-17T11:42:38;28.20;86.60
792;DHT22;379;49.022;12.148;2023-08-17T11:45:06;28.20;85.80
792;DHT22;379;49.022;12.148;2023-08-17T11:47:37;28.20;86.30
792;DHT22;379;49.022;12.148;2023-08-17T11:50:05;28.40;87.20
792;DHT22;379;49.022;12.148;2023-08-17T11:52:32;28.40;87.90
792;DHT22;379;49.022;12.148;2023-08-17T11:54:59;28.50;84.90
792;DHT22;379;49.022;12.148;2023-08-17T11:57:26;28.40;83.30
792;DHT22;379;49.022;12.148;2023-08-17T11:59:53;28.40;82.50
792;DHT22;379;49.022;12.148;2023-08-17T12:02:22;28.30;83.60
792;DHT22;379;49.022;12.148;2023-08-17T12:04:51;28.40;85.00
792;DHT22;379;49.022;12.148;2023-08-17T12:07:18;28.50;84.40
792;DHT22;379;49.022;12.148;2023-08-17T12:09:45;28.60;85.30
792;DHT22;379;49.022;12.148;2023-08-17T12:12:12;28.60;86.10
792;DHT22;379;49.022;12.148;2023-08-17T12:14:41;28.60;86.50
792;DHT22;379;49.022;12.148;2023-08-17T12:17:14;28.60;83.20
792;DHT22;379;49.022;12.148;2023-08-17T12:19:41;28.60;82.70
792;DHT22;379;49.022;12.148;2023-08-17T12:22:12;28.60;79.40
792;DHT22;379;49.022;12.148;2023-08-17T12:24:39;28.70;79.90
792;DHT22;379;49.022;12.148;2023-08-17T12:27:06;28.60;80.00
792;DHT22;379;49.022;12.148;2023-08-17T12:29:33;28.70;80.10
792;DHT22;379;49.022;12.148;2023-08-17T12:32:01;28.70;77.90
792;DHT22;379;49.022;12.148;2023-08-17T12:34:28;28.70;78.90
792;DHT22;379;49.022;12.148;2023-08-17T12:36:55;28.80;79.70
792;DHT22;379;49.022;12.148;2023-08-17T12:39:23;28.80;78.80
792;DHT22;379;49.022;12.148;2023-08-17T12:41:49;28.70;78.50
792;DHT22;379;49.022;12.148;2023-08-17T12:44:16;28.70;78.50
792;DHT22;379;49.022;12.148;2023-08-17T12:46:43;28.70;77.00
792;DHT22;379;49.022;12.148;2023-08-17T12:49:09;28.80;75.90
792;DHT22;379;49.022;12.148;2023-08-17T12:51:36;28.80;73.70
792;DHT22;379;49.022;12.148;2023-08-17T12:54:04;28.80;73.70
792;DHT22;379;49.022;12.148;2023-08-17T12:56:32;28.70;76.00
792;DHT22;379;49.022;12.148;2023-08-17T12:58:59;28.70;74.70
792;DHT22;379;49.022;12.148;2023-08-17T13:01:26;28.70;75.00
792;DHT22;379;49.022;12.148;2023-08-17T13:03:53;28.80;75.90
792;DHT22;379;49.022;12.148;2023-08-17T13:06:19;28.80;75.80
792;DHT22;379;49.022;12.148;2023-08-17T13:08:46;28.80;75.10
792;DHT22;379;49.022;12.148;2023-08-17T13:11:13;28.90;74.80
792;DHT22;379;49.022;12.148;2023-08-17T13:13:41;29.00;71.00
792;DHT22;379;49.022;12.148;2023-08-17T13:16:08;29.00;71.50
792;DHT22;379;49.022;12.148;2023-08-17T13:18:36;29.00;69.40
792;DHT22;379;49.022;12.148;2023-08-17T13:21:03;29.00;67.50
792;DHT22;379;49.022;12.148;2023-08-17T13:23:30;29.00;68.40
792;DHT22;379;49.022;12.148;2023-08-17T13:25:56;29.00;68.80
792;DHT22;379;49.022;12.148;2023-08-17T13:28:23;29.00;69.00
792;DHT22;379;49.022;12.148;2023-08-17T13:30:51;29.10;68.20
792;DHT22;379;49.022;12.148;2023-08-17T13:33:18;29.10;69.00
792;DHT22;379;49.022;12.148;2023-08-17T13:35:45;29.10;69.20
792;DHT22;379;49.022;12.148;2023-08-17T13:38:11;29.10;69.00
792;DHT22;379;49.022;12.148;2023-08-17T13:40:38;29.10;67.90
792;DHT22;379;49.022;12.148;2023-08-17T13:43:05;29.10;66.90
792;DHT22;379;49.022;12.148;2023-08-17T13:45:38;29.10;66.60
792;DHT22;379;49.022;12.148;2023-08-17T13:48:06;29.00;66.00
792;DHT22;379;49.022;12.148;2023-08-17T13:50:33;29.00;67.30
792;DHT22;379;49.022;12.148;2023-08-17T13:53:00;29.00;65.20
792;DHT22;379;49.022;12.148;2023-08-17T13:55:27;29.10;65.30
792;DHT22;379;49.022;12.148;2023-08-17T13:57:54;29.10;65.20
792;DHT22;379;49.022;12.148;2023-08-17T14:00:21;29.10;66.60
792;DHT22;379;49.022;12.148;2023-08-17T14:02:48;29.10;67.40
792;DHT22;379;49.022;12.148;2023-08-17T14:05:16;29.20;68.00
792;DHT22;379;49.022;12.148;2023-08-17T14:07:43;29.20;68.50
792;DHT22;379;49.022;12.148;2023-08-17T14:10:10;29.20;65.00
792;DHT22;379;49.022;12.148;2023-08-17T14:12:37;29.20;64.70
792;DHT22;379;49.022;12.148;2023-08-17T14:15:04;29.20;64.80
792;DHT22;379;49.022;12.148;2023-08-17T14:17:31;29.20;63.70
792;DHT22;379;49.022;12.148;2023-08-17T14:19:58;29.20;62.60
792;DHT22;379;49.022;12.148;2023-08-17T14:22:26;29.20;63.60
792;DHT22;379;49.022;12.148;2023-08-17T14:24:52;29.20;63.00
792;DHT22;379;49.022;12.148;2023-08-17T14:27:19;29.30;62.10
792;DHT22;379;49.022;12.148;2023-08-17T14:29:46;29.30;63.20
792;DHT22;379;49.022;12.148;2023-08-17T14:32:13;29.30;63.60
792;DHT22;379;49.022;12.148;2023-08-17T14:34:39;29.20;63.60
792;DHT22;379;49.022;12.148;2023-08-17T14:37:06;29.30;62.60
792;DHT22;379;49.022;12.148;2023-08-17T14:39:34;29.30;62.00
792;DHT22;379;49.022;12.148;2023-08-17T14:42:01;29.30;63.10
792;DHT22;379;49.022;12.148;2023-08-17T14:44:28;29.30;63.70
792;DHT22;379;49.022;12.148;2023-08-17T14:46:54;29.30;62.60
792;DHT22;379;49.022;12.148;2023-08-17T14:49:21;29.30;60.00
792;DHT22;379;49.022;12.148;2023-08-17T14:51:48;29.30;61.10
792;DHT22;379;49.022;12.148;2023-08-17T14:54:15;29.20;63.00
792;DHT22;379;49.022;12.148;2023-08-17T14:56:43;29.20;63.70
792;DHT22;379;49.022;12.148;2023-08-17T14:59:10;29.20;63.60
792;DHT22;379;49.022;12.148;2023-08-17T15:01:37;29.20;64.20
792;DHT22;379;49.022;12.148;2023-08-17T15:04:04;29.20;65.00
792;DHT22;379;49.022;12.148;2023-08-17T15:06:30;29.20;64.60
792;DHT22;379;49.022;12.148;2023-08-17T15:08:57;29.30;61.30
792;DHT22;379;49.022;12.148;2023-08-17T15:11:24;29.20;63.20
792;DHT22;379;49.022;12.148;2023-08-17T15:13:52;29.20;63.80
792;DHT22;379;49.022;12.148;2023-08-17T15:16:19;29.10;63.70
792;DHT22;379;49.022;12.148;2023-08-17T15:18:50;29.10;63.60
792;DHT22;379;49.022;12.148;2023-08-17T15:21:17;29.10;61.80
792;DHT22;379;49.022;12.148;2023-08-17T15:23:44;29.10;62.10
792;DHT22;379;49.022;12.148;2023-08-17T15:26:10;29.10;61.70
792;DHT22;379;49.022;12.148;2023-08-17T15:28:38;29.10;60.30
792;DHT22;379;49.022;12.148;2023-08-17T15:31:06;29.20;57.20
792;DHT22;379;49.022;12.148;2023-08-17T15:33:37;29.20;58.60
792;DHT22;379;49.022;12.148;2023-08-17T15:36:04;29.20;59.10
792;DHT22;379;49.022;12.148;2023-08-17T15:38:31;29.30;59.90
792;DHT22;379;49.022;12.148;2023-08-17T15:40:57;29.30;59.70
792;DHT22;379;49.022;12.148;2023-08-17T15:43:24;29.30;59.20
792;DHT22;379;49.022;12.148;2023-08-17T15:45:51;29.30;60.50
792;DHT22;379;49.022;12.148;2023-08-17T15:48:20;29.30;60.30
792;DHT22;379;49.022;12.148;2023-08-17T15:50:46;29.20;60.80
792;DHT22;379;49.022;12.148;2023-08-17T15:53:13;29.20;61.40
792;DHT22;379;49.022;12.148;2023-08-17T15:55:40;29.10;61.30
792;DHT22;379;49.022;12.148;2023-08-17T15:58:07;29.10;61.30
792;DHT22;379;49.022;12.148;2023-08-17T16:00:35;29.10;58.30
792;DHT22;379;49.022;12.148;2023-08-17T16:03:02;29.10;58.70
792;DHT22;379;49.022;12.148;2023-08-17T16:05:30;29.10;58.80
792;DHT22;379;49.022;12.148;2023-08-17T16:07:58;29.10;58.50
792;DHT22;379;49.022;12.148;2023-08-17T16:10:25;29.00;57.90
792;DHT22;379;49.022;12.148;2023-08-17T16:12:52;29.00;58.00
792;DHT22;379;49.022;12.148;2023-08-17T16:15:18;28.90;58.60
792;DHT22;379;49.022;12.148;2023-08-17T16:17:45;28.80;59.40
792;DHT22;379;49.022;12.148;2023-08-17T16:20:12;28.70;60.40